Hlavní strana
METAR-TAF:

METAR-TAF

Letiště :

Linköping, Švédsko

zeměpisná šířka: 58-24N, zeměpisná délka: 015-41E, výška: 52 m

Aktuální stav počasí

Zpráva byla vytvořena před 25 minutami, v 05:20 UTC
Jihozápadní vítr 9 kt
Teplota 3°C
Vlhkost vzduchu 75%
Tlak 1019 hPa
Viditelnost 10 km a více
Skoro jasno ve výšce 3500 ft
Zataženo ve výšce 7200 ft
slabý déšť

METAR: ESSL 200520Z 22009KT 9999 -RA FEW035 OVC072 03/M01 Q1019 R29/09//95

Čas: 06:45 (05:45 UTC)

Předpověď počasí

Zpráva byla vytvořena před 1 hodinou a 15 minutami, v 04:30 UTC
Předpověď platná od 20 v 05 UTC do 20 v 12 UTC
Jihozápadní vítr 9 kt
Viditelnost 10 km a více
Žádná oblačnost pod 1500 m, nevyskytují se cumulonimby.
Pravděpodobnost 40%
od 20 v 06 UTC do 20 v 11 UTC
Viditelnost: 4000 m
Oblačno až skoro zataženo ve výšce 1200 ft
slabý déšť

TAF: ESSL 200430Z 2005/2012 23009KT CAVOK PROB40 2006/2011 4000 -RA BKN012

Stav a předpovědi počasí z více než 4 000 letišť (zprávy METAR a TAF).

Červené a žluté tečky na mapě představují dostupné meteorologické stanice.

Když kurzor umístíte na tečku, zobrazí se název stanice.

Pak kliknutím zobrazíte stav a předpověď počasí.

Chcete-li změnit mapu, kliknutím na zelené tlačítko se znaménkem +mapu přiblížíte, kliknutím na zelené tlačítko se znaménkem – mapu oddálíte a kliknutím na zelené šipky přejdete na sousední mapy.


METAR-TAF: